sensor_id;sensor_type;location;lat;lon;timestamp;pressure;altitude;pressure_sealevel;temperature;humidity
50166;BME280;36071;48.140;11.516;2022-12-10T00:03:25;94200.0;;;0.7;99.2
50166;BME280;36071;48.140;11.516;2022-12-10T00:08:25;94200.0;;;0.8;99.2
50166;BME280;36071;48.140;11.516;2022-12-10T00:13:25;94200.0;;;0.7;98.4
50166;BME280;36071;48.140;11.516;2022-12-10T00:18:25;94190.0;;;0.7;98.9
50166;BME280;36071;48.140;11.516;2022-12-10T00:23:25;94180.0;;;0.7;97.9
50166;BME280;36071;48.140;11.516;2022-12-10T00:28:25;94170.0;;;0.7;99.2
50166;BME280;36071;48.140;11.516;2022-12-10T00:33:25;94180.0;;;0.7;98.9
50166;BME280;36071;48.140;11.516;2022-12-10T00:38:25;94180.0;;;0.7;99.4
50166;BME280;36071;48.140;11.516;2022-12-10T00:43:25;94180.0;;;0.6;99.0
50166;BME280;36071;48.140;11.516;2022-12-10T00:48:25;94190.0;;;0.7;98.8
50166;BME280;36071;48.140;11.516;2022-12-10T00:53:25;94200.0;;;0.7;98.8
50166;BME280;36071;48.140;11.516;2022-12-10T00:58:26;94200.0;;;0.6;98.6
50166;BME280;36071;48.140;11.516;2022-12-10T01:03:25;94220.0;;;0.6;99.3
50166;BME280;36071;48.140;11.516;2022-12-10T01:08:25;94220.0;;;0.6;99.5
50166;BME280;36071;48.140;11.516;2022-12-10T01:13:25;94210.0;;;0.7;98.8
50166;BME280;36071;48.140;11.516;2022-12-10T01:18:25;94210.0;;;0.6;98.6
50166;BME280;36071;48.140;11.516;2022-12-10T01:23:25;94210.0;;;0.6;98.9
50166;BME280;36071;48.140;11.516;2022-12-10T01:28:25;94210.0;;;0.6;98.5
50166;BME280;36071;48.140;11.516;2022-12-10T01:33:25;94210.0;;;0.6;98.6
50166;BME280;36071;48.140;11.516;2022-12-10T01:38:25;94220.0;;;0.6;98.9
50166;BME280;36071;48.140;11.516;2022-12-10T01:43:25;94210.0;;;0.6;98.4
50166;BME280;36071;48.140;11.516;2022-12-10T01:48:25;94230.0;;;0.5;98.3
50166;BME280;36071;48.140;11.516;2022-12-10T01:53:25;94230.0;;;0.5;98.8
50166;BME280;36071;48.140;11.516;2022-12-10T01:58:25;94230.0;;;0.6;99.5
50166;BME280;36071;48.140;11.516;2022-12-10T02:03:27;94240.0;;;0.6;99.1
50166;BME280;36071;48.140;11.516;2022-12-10T02:08:26;94240.0;;;0.5;99.0
50166;BME280;36071;48.140;11.516;2022-12-10T02:13:27;94230.0;;;0.5;99.0
50166;BME280;36071;48.140;11.516;2022-12-10T02:18:26;94240.0;;;0.4;99.3
50166;BME280;36071;48.140;11.516;2022-12-10T02:23:26;94230.0;;;0.6;99.4
50166;BME280;36071;48.140;11.516;2022-12-10T02:28:26;94240.0;;;0.5;98.6
50166;BME280;36071;48.140;11.516;2022-12-10T02:33:25;94230.0;;;0.5;99.5
50166;BME280;36071;48.140;11.516;2022-12-10T02:38:26;94220.0;;;0.6;100.0
50166;BME280;36071;48.140;11.516;2022-12-10T02:43:25;94220.0;;;0.6;99.9
50166;BME280;36071;48.140;11.516;2022-12-10T02:48:25;94220.0;;;0.6;100.0
50166;BME280;36071;48.140;11.516;2022-12-10T02:53:25;94210.0;;;0.6;99.6
50166;BME280;36071;48.140;11.516;2022-12-10T02:58:27;94210.0;;;0.5;100.0
50166;BME280;36071;48.140;11.516;2022-12-10T03:03:27;94210.0;;;0.4;100.0
50166;BME280;36071;48.140;11.516;2022-12-10T03:08:27;94210.0;;;0.5;100.0
50166;BME280;36071;48.140;11.516;2022-12-10T03:13:27;94200.0;;;0.4;100.0
50166;BME280;36071;48.140;11.516;2022-12-10T03:23:25;94200.0;;;0.6;100.0
50166;BME280;36071;48.140;11.516;2022-12-10T03:28:25;94200.0;;;0.5;99.4
50166;BME280;36071;48.140;11.516;2022-12-10T03:33:25;94200.0;;;0.6;100.0
50166;BME280;36071;48.140;11.516;2022-12-10T03:43:25;94200.0;;;0.7;99.7
50166;BME280;36071;48.140;11.516;2022-12-10T03:48:25;94200.0;;;0.6;97.8
50166;BME280;36071;48.140;11.516;2022-12-10T03:53:25;94200.0;;;0.6;98.6
50166;BME280;36071;48.140;11.516;2022-12-10T03:58:25;94200.0;;;0.7;98.3
50166;BME280;36071;48.140;11.516;2022-12-10T04:03:25;94200.0;;;0.7;96.3
50166;BME280;36071;48.140;11.516;2022-12-10T04:08:25;94200.0;;;0.6;95.3
50166;BME280;36071;48.140;11.516;2022-12-10T04:13:25;94210.0;;;0.7;95.8
50166;BME280;36071;48.140;11.516;2022-12-10T04:18:25;94210.0;;;0.7;95.9
50166;BME280;36071;48.140;11.516;2022-12-10T04:23:25;94210.0;;;0.6;96.2
50166;BME280;36071;48.140;11.516;2022-12-10T04:28:25;94200.0;;;0.6;96.2
50166;BME280;36071;48.140;11.516;2022-12-10T04:33:25;94220.0;;;0.6;97.0
50166;BME280;36071;48.140;11.516;2022-12-10T04:38:25;94220.0;;;0.6;97.6
50166;BME280;36071;48.140;11.516;2022-12-10T04:43:25;94220.0;;;0.6;97.5
50166;BME280;36071;48.140;11.516;2022-12-10T04:48:25;94230.0;;;0.7;98.8
50166;BME280;36071;48.140;11.516;2022-12-10T04:53:25;94220.0;;;0.6;96.8
50166;BME280;36071;48.140;11.516;2022-12-10T04:58:25;94210.0;;;0.5;98.3
50166;BME280;36071;48.140;11.516;2022-12-10T05:03:25;94210.0;;;0.5;97.8
50166;BME280;36071;48.140;11.516;2022-12-10T05:08:25;94220.0;;;0.6;98.2
50166;BME280;36071;48.140;11.516;2022-12-10T05:13:25;94220.0;;;0.7;96.4
50166;BME280;36071;48.140;11.516;2022-12-10T05:18:25;94220.0;;;0.6;97.3
50166;BME280;36071;48.140;11.516;2022-12-10T05:23:25;94210.0;;;0.5;98.0
50166;BME280;36071;48.140;11.516;2022-12-10T05:28:25;94200.0;;;0.7;96.7
50166;BME280;36071;48.140;11.516;2022-12-10T05:33:25;94210.0;;;0.6;98.1
50166;BME280;36071;48.140;11.516;2022-12-10T05:38:25;94220.0;;;0.6;98.2
50166;BME280;36071;48.140;11.516;2022-12-10T05:43:25;94220.0;;;0.4;97.0
50166;BME280;36071;48.140;11.516;2022-12-10T05:48:25;94230.0;;;0.5;98.8
50166;BME280;36071;48.140;11.516;2022-12-10T05:53:25;94220.0;;;0.4;99.1
50166;BME280;36071;48.140;11.516;2022-12-10T05:58:26;94230.0;;;0.6;100.0
50166;BME280;36071;48.140;11.516;2022-12-10T06:03:26;94240.0;;;0.5;98.1
50166;BME280;36071;48.140;11.516;2022-12-10T06:08:25;94250.0;;;0.6;99.8
50166;BME280;36071;48.140;11.516;2022-12-10T06:13:25;94240.0;;;0.5;97.9
50166;BME280;36071;48.140;11.516;2022-12-10T06:18:25;94240.0;;;0.6;98.9
50166;BME280;36071;48.140;11.516;2022-12-10T06:23:25;94230.0;;;0.6;98.9
50166;BME280;36071;48.140;11.516;2022-12-10T06:28:25;94230.0;;;0.6;97.6
50166;BME280;36071;48.140;11.516;2022-12-10T06:33:25;94230.0;;;0.7;99.8
50166;BME280;36071;48.140;11.516;2022-12-10T06:38:25;94230.0;;;0.7;97.6
50166;BME280;36071;48.140;11.516;2022-12-10T06:43:27;94230.0;;;0.5;96.9
50166;BME280;36071;48.140;11.516;2022-12-10T06:48:25;94240.0;;;0.6;99.3
50166;BME280;36071;48.140;11.516;2022-12-10T06:53:25;94240.0;;;0.6;100.0
50166;BME280;36071;48.140;11.516;2022-12-10T06:58:26;94240.0;;;0.5;100.0
50166;BME280;36071;48.140;11.516;2022-12-10T07:03:25;94230.0;;;0.7;99.6
50166;BME280;36071;48.140;11.516;2022-12-10T07:08:25;94230.0;;;0.7;96.9
50166;BME280;36071;48.140;11.516;2022-12-10T07:13:25;94240.0;;;0.8;97.8
50166;BME280;36071;48.140;11.516;2022-12-10T07:18:25;94240.0;;;0.8;97.5
50166;BME280;36071;48.140;11.516;2022-12-10T07:23:25;94240.0;;;0.7;96.4
50166;BME280;36071;48.140;11.516;2022-12-10T07:28:25;94260.0;;;0.8;98.6
50166;BME280;36071;48.140;11.516;2022-12-10T07:33:25;94270.0;;;0.6;95.1
50166;BME280;36071;48.140;11.516;2022-12-10T07:38:25;94270.0;;;0.7;97.0
50166;BME280;36071;48.140;11.516;2022-12-10T07:43:25;94260.0;;;0.8;100.0
50166;BME280;36071;48.140;11.516;2022-12-10T07:48:25;94260.0;;;0.7;100.0
50166;BME280;36071;48.140;11.516;2022-12-10T07:53:25;94250.0;;;0.7;100.0
50166;BME280;36071;48.140;11.516;2022-12-10T07:58:25;94250.0;;;0.6;98.8
50166;BME280;36071;48.140;11.516;2022-12-10T08:03:25;94250.0;;;0.6;99.3
50166;BME280;36071;48.140;11.516;2022-12-10T08:08:25;94260.0;;;0.6;100.0
50166;BME280;36071;48.140;11.516;2022-12-10T08:13:25;94260.0;;;0.5;99.0
50166;BME280;36071;48.140;11.516;2022-12-10T08:18:25;94250.0;;;0.8;100.0
50166;BME280;36071;48.140;11.516;2022-12-10T08:23:25;94240.0;;;0.5;97.8
50166;BME280;36071;48.140;11.516;2022-12-10T08:28:25;94260.0;;;0.8;99.5
50166;BME280;36071;48.140;11.516;2022-12-10T08:33:25;94280.0;;;0.6;96.3
50166;BME280;36071;48.140;11.516;2022-12-10T08:38:25;94280.0;;;0.8;99.8
50166;BME280;36071;48.140;11.516;2022-12-10T08:43:25;94270.0;;;1.1;100.0
50166;BME280;36071;48.140;11.516;2022-12-10T08:48:25;94270.0;;;1.0;97.7
50166;BME280;36071;48.140;11.516;2022-12-10T08:53:25;94270.0;;;0.6;95.7
50166;BME280;36071;48.140;11.516;2022-12-10T08:58:25;94270.0;;;0.8;98.2
50166;BME280;36071;48.140;11.516;2022-12-10T09:03:25;94290.0;;;0.7;96.7
50166;BME280;36071;48.140;11.516;2022-12-10T09:08:25;94290.0;;;0.6;96.8
50166;BME280;36071;48.140;11.516;2022-12-10T09:13:25;94290.0;;;0.6;95.8
50166;BME280;36071;48.140;11.516;2022-12-10T09:18:25;94290.0;;;1.0;96.6
50166;BME280;36071;48.140;11.516;2022-12-10T09:23:25;94300.0;;;1.1;94.5
50166;BME280;36071;48.140;11.516;2022-12-10T09:28:25;94300.0;;;1.3;95.7
50166;BME280;36071;48.140;11.516;2022-12-10T09:33:25;94300.0;;;1.2;93.8
50166;BME280;36071;48.140;11.516;2022-12-10T09:38:25;94300.0;;;1.2;93.0
50166;BME280;36071;48.140;11.516;2022-12-10T09:43:26;94300.0;;;1.2;93.5
50166;BME280;36071;48.140;11.516;2022-12-10T09:48:26;94300.0;;;1.2;92.5
50166;BME280;36071;48.140;11.516;2022-12-10T09:53:25;94300.0;;;1.2;92.7
50166;BME280;36071;48.140;11.516;2022-12-10T09:58:26;94310.0;;;1.1;91.4
50166;BME280;36071;48.140;11.516;2022-12-10T10:03:25;94290.0;;;1.1;91.3
50166;BME280;36071;48.140;11.516;2022-12-10T10:08:27;94290.0;;;1.2;92.0
50166;BME280;36071;48.140;11.516;2022-12-10T10:13:28;94290.0;;;1.2;92.4
50166;BME280;36071;48.140;11.516;2022-12-10T10:18:28;94290.0;;;1.3;92.0
50166;BME280;36071;48.140;11.516;2022-12-10T10:23:25;94290.0;;;1.1;90.7
50166;BME280;36071;48.140;11.516;2022-12-10T10:28:25;94290.0;;;1.1;90.8
50166;BME280;36071;48.140;11.516;2022-12-10T10:33:25;94290.0;;;1.1;91.7
50166;BME280;36071;48.140;11.516;2022-12-10T10:38:27;94290.0;;;1.1;91.3
50166;BME280;36071;48.140;11.516;2022-12-10T10:43:25;94290.0;;;1.1;92.4
50166;BME280;36071;48.140;11.516;2022-12-10T10:48:26;94290.0;;;1.2;91.9
50166;BME280;36071;48.140;11.516;2022-12-10T10:53:27;94280.0;;;1.2;91.7
50166;BME280;36071;48.140;11.516;2022-12-10T10:58:25;94280.0;;;1.2;92.1
50166;BME280;36071;48.140;11.516;2022-12-10T11:03:25;94290.0;;;1.3;93.9
50166;BME280;36071;48.140;11.516;2022-12-10T11:08:26;94280.0;;;1.2;93.9
50166;BME280;36071;48.140;11.516;2022-12-10T11:13:25;94270.0;;;1.4;94.4
50166;BME280;36071;48.140;11.516;2022-12-10T11:18:27;94280.0;;;1.4;92.6
50166;BME280;36071;48.140;11.516;2022-12-10T11:23:26;94270.0;;;1.3;93.9
50166;BME280;36071;48.140;11.516;2022-12-10T11:28:30;94270.0;;;1.3;95.1
50166;BME280;36071;48.140;11.516;2022-12-10T11:33:26;94270.0;;;1.2;94.0
50166;BME280;36071;48.140;11.516;2022-12-10T11:38:26;94260.0;;;1.4;93.8
50166;BME280;36071;48.140;11.516;2022-12-10T11:43:29;94270.0;;;1.5;94.1
50166;BME280;36071;48.140;11.516;2022-12-10T11:48:29;94270.0;;;1.5;93.1
50166;BME280;36071;48.140;11.516;2022-12-10T11:53:30;94270.0;;;1.5;93.0
50166;BME280;36071;48.140;11.516;2022-12-10T11:58:31;94270.0;;;1.5;94.3
50166;BME280;36071;48.140;11.516;2022-12-10T12:03:30;94280.0;;;1.4;91.3
50166;BME280;36071;48.140;11.516;2022-12-10T12:08:26;94280.0;;;1.4;91.4
50166;BME280;36071;48.140;11.516;2022-12-10T12:13:25;94290.0;;;1.4;92.4
50166;BME280;36071;48.140;11.516;2022-12-10T12:18:27;94280.0;;;1.4;92.3
50166;BME280;36071;48.140;11.516;2022-12-10T12:23:26;94290.0;;;1.4;91.3
50166;BME280;36071;48.140;11.516;2022-12-10T12:28:25;94290.0;;;1.4;93.5
50166;BME280;36071;48.140;11.516;2022-12-10T12:33:26;94290.0;;;1.3;91.2
50166;BME280;36071;48.140;11.516;2022-12-10T12:38:41;94300.0;;;1.4;91.2
50166;BME280;36071;48.140;11.516;2022-12-10T12:43:25;94300.0;;;1.3;92.0
50166;BME280;36071;48.140;11.516;2022-12-10T12:48:26;94310.0;;;1.3;91.5
50166;BME280;36071;48.140;11.516;2022-12-10T12:53:25;94310.0;;;1.4;92.5
50166;BME280;36071;48.140;11.516;2022-12-10T12:58:30;94320.0;;;1.4;93.1
50166;BME280;36071;48.140;11.516;2022-12-10T13:03:29;94320.0;;;1.4;92.5
50166;BME280;36071;48.140;11.516;2022-12-10T13:08:28;94320.0;;;1.3;91.8
50166;BME280;36071;48.140;11.516;2022-12-10T13:13:28;94330.0;;;1.3;93.5
50166;BME280;36071;48.140;11.516;2022-12-10T13:18:34;94330.0;;;1.3;92.1
50166;BME280;36071;48.140;11.516;2022-12-10T13:23:28;94330.0;;;1.4;96.3
50166;BME280;36071;48.140;11.516;2022-12-10T13:28:27;94340.0;;;1.3;93.2
50166;BME280;36071;48.140;11.516;2022-12-10T13:33:25;94350.0;;;1.3;92.0
50166;BME280;36071;48.140;11.516;2022-12-10T13:38:25;94350.0;;;1.4;93.2
50166;BME280;36071;48.140;11.516;2022-12-10T13:43:26;94370.0;;;1.4;93.3
50166;BME280;36071;48.140;11.516;2022-12-10T13:48:26;94360.0;;;1.3;91.7
50166;BME280;36071;48.140;11.516;2022-12-10T13:53:28;94360.0;;;1.3;91.2
50166;BME280;36071;48.140;11.516;2022-12-10T13:58:26;94380.0;;;1.1;91.4
50166;BME280;36071;48.140;11.516;2022-12-10T14:03:52;94390.0;;;1.2;91.5
50166;BME280;36071;48.140;11.516;2022-12-10T14:08:26;94390.0;;;1.2;92.2
50166;BME280;36071;48.140;11.516;2022-12-10T14:13:27;94400.0;;;1.2;92.5
50166;BME280;36071;48.140;11.516;2022-12-10T14:18:25;94410.0;;;1.0;91.9
50166;BME280;36071;48.140;11.516;2022-12-10T14:23:26;94410.0;;;1.0;92.3
50166;BME280;36071;48.140;11.516;2022-12-10T14:28:25;94410.0;;;1.1;92.5
50166;BME280;36071;48.140;11.516;2022-12-10T14:33:25;94410.0;;;1.1;93.5
50166;BME280;36071;48.140;11.516;2022-12-10T14:38:26;94430.0;;;1.1;92.0
50166;BME280;36071;48.140;11.516;2022-12-10T14:43:27;94430.0;;;1.0;91.6
50166;BME280;36071;48.140;11.516;2022-12-10T14:48:25;94440.0;;;0.9;91.6
50166;BME280;36071;48.140;11.516;2022-12-10T14:53:25;94450.0;;;1.1;91.4
50166;BME280;36071;48.140;11.516;2022-12-10T14:58:26;94460.0;;;1.0;91.1
50166;BME280;36071;48.140;11.516;2022-12-10T15:03:26;94460.0;;;1.0;90.7
50166;BME280;36071;48.140;11.516;2022-12-10T15:08:25;94460.0;;;0.9;90.8
50166;BME280;36071;48.140;11.516;2022-12-10T15:13:28;94430.0;;;0.8;90.6
50166;BME280;36071;48.140;11.516;2022-12-10T15:18:26;94480.0;;;1.1;90.9
50166;BME280;36071;48.140;11.516;2022-12-10T15:23:30;94480.0;;;1.0;90.6
50166;BME280;36071;48.140;11.516;2022-12-10T15:28:25;94500.0;;;1.0;90.4
50166;BME280;36071;48.140;11.516;2022-12-10T15:33:28;94490.0;;;1.0;90.8
50166;BME280;36071;48.140;11.516;2022-12-10T15:38:25;94490.0;;;0.8;90.9
50166;BME280;36071;48.140;11.516;2022-12-10T15:43:26;94500.0;;;0.9;90.2
50166;BME280;36071;48.140;11.516;2022-12-10T15:48:26;94500.0;;;0.8;90.9
50166;BME280;36071;48.140;11.516;2022-12-10T15:53:26;94500.0;;;1.0;90.8
50166;BME280;36071;48.140;11.516;2022-12-10T15:58:25;94510.0;;;0.8;91.6
50166;BME280;36071;48.140;11.516;2022-12-10T16:03:25;94530.0;;;0.9;92.0
50166;BME280;36071;48.140;11.516;2022-12-10T16:08:25;94530.0;;;0.9;90.4
50166;BME280;36071;48.140;11.516;2022-12-10T16:13:25;94530.0;;;0.9;89.4
50166;BME280;36071;48.140;11.516;2022-12-10T16:18:25;94540.0;;;0.8;90.1
50166;BME280;36071;48.140;11.516;2022-12-10T16:23:25;94540.0;;;0.7;87.8
50166;BME280;36071;48.140;11.516;2022-12-10T16:28:25;94530.0;;;0.7;88.1
50166;BME280;36071;48.140;11.516;2022-12-10T16:33:25;94540.0;;;0.8;90.4
50166;BME280;36071;48.140;11.516;2022-12-10T16:38:25;94550.0;;;0.7;90.6
50166;BME280;36071;48.140;11.516;2022-12-10T16:43:25;94550.0;;;0.7;89.1
50166;BME280;36071;48.140;11.516;2022-12-10T16:48:25;94550.0;;;0.7;89.4
50166;BME280;36071;48.140;11.516;2022-12-10T16:53:25;94560.0;;;0.7;89.8
50166;BME280;36071;48.140;11.516;2022-12-10T16:58:25;94550.0;;;0.6;90.4
50166;BME280;36071;48.140;11.516;2022-12-10T17:03:25;94560.0;;;0.7;91.4
50166;BME280;36071;48.140;11.516;2022-12-10T17:08:25;94560.0;;;0.7;90.4
50166;BME280;36071;48.140;11.516;2022-12-10T17:13:25;94570.0;;;0.6;88.4
50166;BME280;36071;48.140;11.516;2022-12-10T17:18:25;94580.0;;;0.6;89.2
50166;BME280;36071;48.140;11.516;2022-12-10T17:23:25;94580.0;;;0.6;89.5
50166;BME280;36071;48.140;11.516;2022-12-10T17:33:25;94590.0;;;0.5;88.9
50166;BME280;36071;48.140;11.516;2022-12-10T17:38:25;94590.0;;;0.5;90.0
50166;BME280;36071;48.140;11.516;2022-12-10T17:43:25;94600.0;;;0.4;87.2
50166;BME280;36071;48.140;11.516;2022-12-10T17:48:25;94590.0;;;0.4;87.7
50166;BME280;36071;48.140;11.516;2022-12-10T17:53:25;94590.0;;;0.3;87.0
50166;BME280;36071;48.140;11.516;2022-12-10T17:58:25;94590.0;;;0.3;87.7
50166;BME280;36071;48.140;11.516;2022-12-10T18:03:25;94600.0;;;0.2;88.6
50166;BME280;36071;48.140;11.516;2022-12-10T18:08:25;94610.0;;;0.1;88.3
50166;BME280;36071;48.140;11.516;2022-12-10T18:13:25;94610.0;;;0.1;89.5
50166;BME280;36071;48.140;11.516;2022-12-10T18:18:25;94610.0;;;0.2;89.3
50166;BME280;36071;48.140;11.516;2022-12-10T18:23:25;94610.0;;;0.1;89.2
50166;BME280;36071;48.140;11.516;2022-12-10T18:28:42;94610.0;;;0.1;89.4
50166;BME280;36071;48.140;11.516;2022-12-10T18:33:25;94620.0;;;0.0;88.9
50166;BME280;36071;48.140;11.516;2022-12-10T18:38:25;94630.0;;;0.0;89.0
50166;BME280;36071;48.140;11.516;2022-12-10T18:43:25;94630.0;;;0.0;91.1
50166;BME280;36071;48.140;11.516;2022-12-10T18:48:25;94640.0;;;-0.1;88.2
50166;BME280;36071;48.140;11.516;2022-12-10T18:54:03;94610.0;;;-0.3;89.0
50166;BME280;36071;48.140;11.516;2022-12-10T18:58:25;94650.0;;;-0.2;88.3
50166;BME280;36071;48.140;11.516;2022-12-10T19:03:25;94640.0;;;-0.2;90.0
50166;BME280;36071;48.140;11.516;2022-12-10T19:08:25;94640.0;;;-0.2;90.2
50166;BME280;36071;48.140;11.516;2022-12-10T19:13:25;94650.0;;;-0.2;90.2
50166;BME280;36071;48.140;11.516;2022-12-10T19:18:25;94660.0;;;-0.1;90.2
50166;BME280;36071;48.140;11.516;2022-12-10T19:23:25;94660.0;;;-0.1;90.5
50166;BME280;36071;48.140;11.516;2022-12-10T19:28:25;94650.0;;;-0.1;91.2
50166;BME280;36071;48.140;11.516;2022-12-10T19:33:25;94660.0;;;-0.1;90.7
50166;BME280;36071;48.140;11.516;2022-12-10T19:38:25;94660.0;;;-0.1;89.4
50166;BME280;36071;48.140;11.516;2022-12-10T19:43:25;94650.0;;;-0.1;89.9
50166;BME280;36071;48.140;11.516;2022-12-10T19:48:25;94640.0;;;-0.1;89.8
50166;BME280;36071;48.140;11.516;2022-12-10T19:53:25;94640.0;;;-0.1;90.1
50166;BME280;36071;48.140;11.516;2022-12-10T19:58:25;94650.0;;;-0.1;89.2
50166;BME280;36071;48.140;11.516;2022-12-10T20:03:25;94650.0;;;-0.2;89.9
50166;BME280;36071;48.140;11.516;2022-12-10T20:08:25;94650.0;;;-0.2;90.6
50166;BME280;36071;48.140;11.516;2022-12-10T20:13:25;94660.0;;;-0.3;90.2
50166;BME280;36071;48.140;11.516;2022-12-10T20:18:25;94660.0;;;-0.2;89.9
50166;BME280;36071;48.140;11.516;2022-12-10T20:23:25;94650.0;;;-0.3;89.3
50166;BME280;36071;48.140;11.516;2022-12-10T20:28:25;94650.0;;;-0.4;89.1
50166;BME280;36071;48.140;11.516;2022-12-10T20:33:25;94650.0;;;-0.3;89.2
50166;BME280;36071;48.140;11.516;2022-12-10T20:38:25;94660.0;;;-0.4;88.4
50166;BME280;36071;48.140;11.516;2022-12-10T20:43:25;94660.0;;;-0.3;90.1
50166;BME280;36071;48.140;11.516;2022-12-10T20:48:25;94660.0;;;-0.3;88.6
50166;BME280;36071;48.140;11.516;2022-12-10T20:53:25;94660.0;;;-0.5;88.7
50166;BME280;36071;48.140;11.516;2022-12-10T20:58:25;94660.0;;;-0.6;88.7
50166;BME280;36071;48.140;11.516;2022-12-10T21:03:25;94670.0;;;-0.4;89.6
50166;BME280;36071;48.140;11.516;2022-12-10T21:08:25;94670.0;;;-0.3;91.0
50166;BME280;36071;48.140;11.516;2022-12-10T21:13:25;94670.0;;;-0.3;88.3
50166;BME280;36071;48.140;11.516;2022-12-10T21:18:25;94680.0;;;-0.3;87.3
50166;BME280;36071;48.140;11.516;2022-12-10T21:23:26;94680.0;;;-0.4;87.0
50166;BME280;36071;48.140;11.516;2022-12-10T21:28:25;94680.0;;;-0.5;87.7
50166;BME280;36071;48.140;11.516;2022-12-10T21:33:25;94680.0;;;-0.5;87.9
50166;BME280;36071;48.140;11.516;2022-12-10T21:38:25;94670.0;;;-0.4;90.0
50166;BME280;36071;48.140;11.516;2022-12-10T21:43:25;94670.0;;;-0.4;89.3
50166;BME280;36071;48.140;11.516;2022-12-10T21:48:25;94670.0;;;-0.5;88.7
50166;BME280;36071;48.140;11.516;2022-12-10T21:53:25;94670.0;;;-0.5;87.5
50166;BME280;36071;48.140;11.516;2022-12-10T21:58:25;94670.0;;;-0.5;87.8
50166;BME280;36071;48.140;11.516;2022-12-10T22:03:25;94670.0;;;-0.6;88.3
50166;BME280;36071;48.140;11.516;2022-12-10T22:08:25;94680.0;;;-0.6;87.7
50166;BME280;36071;48.140;11.516;2022-12-10T22:13:25;94680.0;;;-0.6;88.3
50166;BME280;36071;48.140;11.516;2022-12-10T22:18:25;94680.0;;;-0.7;88.3
50166;BME280;36071;48.140;11.516;2022-12-10T22:23:25;94680.0;;;-0.6;87.7
50166;BME280;36071;48.140;11.516;2022-12-10T22:28:25;94680.0;;;-0.6;88.6
50166;BME280;36071;48.140;11.516;2022-12-10T22:33:25;94680.0;;;-0.6;88.5
50166;BME280;36071;48.140;11.516;2022-12-10T22:38:25;94680.0;;;-0.4;89.2
50166;BME280;36071;48.140;11.516;2022-12-10T22:43:25;94690.0;;;-0.5;88.9
50166;BME280;36071;48.140;11.516;2022-12-10T22:48:25;94670.0;;;-0.3;91.4
50166;BME280;36071;48.140;11.516;2022-12-10T22:53:25;94670.0;;;-0.4;88.4
50166;BME280;36071;48.140;11.516;2022-12-10T22:58:25;94670.0;;;-0.4;87.5
50166;BME280;36071;48.140;11.516;2022-12-10T23:03:25;94680.0;;;-0.7;87.6
50166;BME280;36071;48.140;11.516;2022-12-10T23:08:25;94670.0;;;-0.7;88.4
50166;BME280;36071;48.140;11.516;2022-12-10T23:13:25;94670.0;;;-0.7;88.0
50166;BME280;36071;48.140;11.516;2022-12-10T23:18:25;94680.0;;;-0.6;87.2
50166;BME280;36071;48.140;11.516;2022-12-10T23:23:25;94670.0;;;-0.7;87.6
50166;BME280;36071;48.140;11.516;2022-12-10T23:28:25;94670.0;;;-0.8;86.7
50166;BME280;36071;48.140;11.516;2022-12-10T23:33:25;94650.0;;;-0.8;86.6
50166;BME280;36071;48.140;11.516;2022-12-10T23:38:25;94670.0;;;-0.8;86.4
50166;BME280;36071;48.140;11.516;2022-12-10T23:43:25;94670.0;;;-0.7;86.5
50166;BME280;36071;48.140;11.516;2022-12-10T23:48:25;94660.0;;;-0.9;86.7
50166;BME280;36071;48.140;11.516;2022-12-10T23:53:25;94670.0;;;-0.7;86.4
50166;BME280;36071;48.140;11.516;2022-12-10T23:58:25;94660.0;;;-0.8;85.4
